Time;durP1;ratioP1;P1;durP2;ratioP2;P2;SDS_P1;SDS_P2;PMS_P1;PMS_P2;Temp;Humidity;BMP_temperature;BMP_pressure;BME280_temperature;BME280_humidity;BME280_pressure;Samples;Min_cycle;Max_cycle;Signal;HPM_P1;HPM_P2
2022/04/18 00:00:33;;;;;;;0.80;0.80;;;6.40;49.50;;;5.34;35.91;95328.81;5061499;28;20218;-87
2022/04/18 00:03:03;;;;;;;0.70;0.70;;;6.40;49.80;;;5.21;36.01;95297.16;5077188;28;20194;-87
2022/04/18 00:05:31;;;;;;;0.60;0.60;;;6.40;49.80;;;5.28;36.06;95317.25;5062853;28;20687;-86
2022/04/18 00:07:59;;;;;;;0.70;0.70;;;6.30;49.80;;;5.27;35.80;95310.41;5057365;28;20203;-85
2022/04/18 00:10:26;;;;;;;0.68;0.68;;;6.30;49.70;;;5.20;36.19;95300.72;5059575;28;20215;-86
2022/04/18 00:12:53;;;;;;;0.70;0.70;;;6.30;49.70;;;5.20;35.89;95305.94;5057788;28;20218;-86
2022/04/18 00:15:20;;;;;;;0.60;0.60;;;6.30;49.80;;;5.17;35.79;95306.25;5065936;28;20546;-86
2022/04/18 00:17:47;;;;;;;0.63;0.63;;;6.30;49.70;;;4.97;35.67;95280.38;5076111;28;20191;-85
2022/04/18 00:20:14;;;;;;;0.68;0.68;;;6.20;49.70;;;5.01;35.92;95292.13;5062521;28;20229;-86
2022/04/18 00:22:42;;;;;;;0.80;0.80;;;6.20;49.70;;;5.03;35.95;95299.75;5060220;28;20187;-86
2022/04/18 00:25:09;;;;;;;0.60;0.60;;;6.20;49.80;;;4.97;36.02;95296.78;5053129;28;20727;-86
2022/04/18 00:27:36;;;;;;;0.70;0.70;;;6.10;49.70;;;4.92;36.22;95293.81;5062469;28;20191;-86
2022/04/18 00:30:05;;;;;;;0.68;0.68;;;6.10;49.90;;;4.83;36.06;95283.50;5057526;28;20301;-86
2022/04/18 00:32:35;;;;;;;0.80;0.80;;;6.00;50.00;;;4.84;36.20;95298.13;5038787;28;20280;-86
2022/04/18 00:35:05;;;;;;;0.68;0.68;;;6.00;50.20;;;4.73;36.16;95288.75;5062261;28;20265;-86
2022/04/18 00:37:33;;;;;;;0.70;0.70;;;5.90;50.00;;;4.70;36.36;95292.47;5059883;28;20195;-86
2022/04/18 00:40:00;;;;;;;0.70;0.70;;;5.90;50.10;;;4.67;36.60;95286.75;5059889;28;20223;-86
2022/04/18 00:42:27;;;;;;;0.80;0.80;;;5.90;50.20;;;4.49;36.57;95264.97;5055163;28;20570;-85
2022/04/18 00:44:55;;;;;;;0.50;0.50;;;5.80;50.40;;;4.62;36.64;95281.97;5058990;28;20300;-85
2022/04/18 00:47:22;;;;;;;0.80;0.80;;;5.80;50.60;;;4.62;36.80;95281.97;5042672;28;20204;-85
2022/04/18 00:49:49;;;;;;;0.70;0.70;;;5.80;50.60;;;4.61;36.64;95280.34;5076055;28;20798;-85
2022/04/18 00:52:17;;;;;;;0.80;0.80;;;5.70;50.60;;;4.48;36.80;95259.91;5057916;28;20210;-85
2022/04/18 00:54:47;;;;;;;0.75;0.75;;;5.70;50.80;;;4.55;36.76;95273.13;5066205;28;20218;-86
2022/04/18 00:57:14;;;;;;;0.70;0.70;;;5.70;51.00;;;4.51;36.75;95267.41;5078806;28;20716;-85
2022/04/18 00:59:44;;;;;;;0.70;0.70;;;5.70;50.90;;;4.48;36.78;95272.91;5043992;28;20304;-85
2022/04/18 01:02:16;;;;;;;0.70;0.70;;;5.60;50.80;;;4.41;36.75;95267.44;5058922;28;20679;-85
2022/04/18 01:04:44;;;;;;;0.80;0.80;;;5.60;50.80;;;4.35;36.52;95262.84;5074880;28;20261;-85
2022/04/18 01:07:12;;;;;;;0.60;0.60;;;5.60;50.80;;;4.27;36.66;95258.38;5042070;28;20201;-85
2022/04/18 01:09:39;;;;;;;0.75;0.75;;;5.50;51.00;;;4.23;36.88;95253.59;5041581;28;20233;-85
2022/04/18 01:12:07;;;;;;;0.80;0.80;;;5.50;50.90;;;4.13;36.54;95241.47;5059173;28;20285;-85
2022/04/18 01:14:53;;;;;;;0.80;0.80;;;5.40;51.00;;;4.14;36.68;95244.91;5064311;28;20233;-85
2022/04/18 01:17:39;;;;;;;0.60;0.60;;;5.40;51.10;;;4.04;37.01;95231.97;5064546;28;20205;-85
2022/04/18 01:20:18;;;;;;;0.70;0.70;;;5.30;51.40;;;4.03;37.59;95232.09;5059902;28;20215;-85
2022/04/18 01:23:09;;;;;;;0.73;0.73;;;5.30;51.40;;;4.08;37.70;95233.31;5049987;28;20205;-85
2022/04/18 01:28:58;;;;;;;0.70;0.70;;;5.30;51.50;;;4.18;37.74;95224.69;5075553;28;20661;-85
2022/04/18 01:31:31;;;;;;;0.75;0.75;;;5.30;51.50;;;4.23;38.09;95223.25;5058910;28;20297;-85
2022/04/18 01:33:59;;;;;;;0.70;0.70;;;5.30;51.50;;;4.28;37.82;95220.22;5057664;28;20314;-85
2022/04/18 01:36:27;;;;;;;0.70;0.70;;;5.30;51.40;;;4.25;37.25;95217.94;5054922;28;20657;-85
2022/04/18 01:38:56;;;;;;;0.60;0.60;;;5.20;51.40;;;4.22;37.54;95224.22;5053224;28;20655;-85
2022/04/18 01:41:24;;;;;;;0.80;0.80;;;5.30;51.50;;;4.14;37.36;95211.16;5041551;28;20203;-84
2022/04/18 01:43:52;;;;;;;0.70;0.70;;;5.30;51.40;;;4.09;37.34;95221.13;5040156;28;20230;-85
2022/04/18 01:46:19;;;;;;;0.90;0.90;;;5.20;51.40;;;3.99;37.32;95219.41;5056814;28;20195;-85
2022/04/18 01:48:47;;;;;;;0.50;0.50;;;5.20;51.30;;;3.93;37.55;95219.16;5058589;28;20198;-85
2022/04/18 01:51:14;;;;;;;0.80;0.80;;;5.20;51.30;;;3.83;37.30;95217.44;5044368;28;20226;-85
2022/04/18 01:53:42;;;;;;;0.80;0.80;;;5.10;51.20;;;3.71;37.63;95209.97;5040624;28;20202;-84
2022/04/18 01:56:09;;;;;;;0.60;0.60;;;5.20;51.30;;;3.66;37.26;95208.63;5058200;28;20190;-85
2022/04/18 01:58:38;;;;;;;0.80;0.80;;;5.00;51.20;;;3.59;37.65;95207.56;5057828;28;20213;-85
2022/04/18 02:01:06;;;;;;;0.80;0.80;;;4.90;51.00;;;3.51;37.39;95207.44;5044271;28;20243;-85
2022/04/18 02:03:33;;;;;;;0.80;0.80;;;4.90;51.10;;;3.33;37.79;95190.03;5056555;28;20557;-85
2022/04/18 02:06:01;;;;;;;0.70;0.70;;;4.80;51.20;;;3.32;37.85;95200.50;5057520;28;20688;-84
2022/04/18 02:08:28;;;;;;;0.68;0.68;;;4.70;51.40;;;3.20;37.80;95187.72;5058018;28;20612;-84
2022/04/18 02:10:55;;;;;;;0.60;0.60;;;4.70;51.50;;;3.18;37.76;95191.41;5044929;28;20218;-85
2022/04/18 02:13:34;;;;;;;0.80;0.80;;;4.60;51.40;;;3.15;37.87;95200.28;5049255;28;20200;-85
2022/04/18 02:16:04;;;;;;;0.80;0.80;;;4.50;51.50;;;3.04;38.05;95184.88;5061575;28;20214;-84
2022/04/18 02:18:32;;;;;;;0.70;0.70;;;4.50;51.70;;;3.00;37.80;95186.09;5059158;28;20199;-85
2022/04/18 02:20:59;;;;;;;0.80;0.80;;;4.40;51.60;;;2.88;37.96;95175.91;5062013;28;20301;-84
2022/04/18 02:23:26;;;;;;;0.70;0.70;;;4.30;51.70;;;2.93;37.91;95185.84;5079459;28;20286;-84
2022/04/18 02:25:53;;;;;;;0.70;0.70;;;4.30;51.80;;;2.89;37.98;95194.84;5061922;28;20227;-85
2022/04/18 02:28:21;;;;;;;0.63;0.63;;;4.20;51.90;;;2.81;38.63;95179.19;5074457;28;20217;-84
2022/04/18 02:30:53;;;;;;;0.70;0.70;;;4.20;52.10;;;2.75;39.22;95171.94;5062450;28;20309;-84
2022/04/18 02:33:21;;;;;;;0.77;0.77;;;4.10;52.40;;;2.79;38.78;95175.91;5045582;28;20244;-85
2022/04/18 02:35:50;;;;;;;0.70;0.70;;;4.10;52.70;;;2.76;38.88;95182.19;5062044;28;20210;-84
2022/04/18 02:38:17;;;;;;;0.70;0.70;;;4.10;52.90;;;2.64;38.68;95149.59;5062178;28;20199;-85
2022/04/18 02:40:46;;;;;;;0.75;0.75;;;4.00;52.70;;;2.69;38.62;95163.75;5071286;28;20282;-84
2022/04/18 02:43:14;;;;;;;0.80;0.80;;;4.00;52.90;;;2.70;39.22;95175.75;5043543;28;20289;-84
2022/04/18 02:45:47;;;;;;;0.80;0.80;;;4.00;53.30;;;2.70;39.07;95162.00;5053303;28;20264;-85
2022/04/18 02:48:30;;;;;;;0.80;0.80;;;3.90;53.10;;;2.67;39.06;95160.50;5066146;28;20206;-85
2022/04/18 02:50:58;;;;;;;0.70;0.70;;;3.90;53.10;;;2.68;38.70;95150.97;5062086;28;20587;-85
2022/04/18 02:53:29;;;;;;;0.80;0.80;;;3.90;53.20;;;2.67;39.10;95155.34;5062217;28;20224;-85
2022/04/18 02:56:03;;;;;;;0.60;0.60;;;3.90;53.30;;;2.51;39.72;95132.53;5062256;28;20217;-85
2022/04/18 02:58:33;;;;;;;0.80;0.80;;;3.90;53.60;;;2.66;42.09;95142.50;5046127;28;20202;-86
2022/04/18 03:01:00;;;;;;;0.80;0.80;;;3.90;55.10;;;2.71;43.04;95153.25;5048384;28;20292;-86
2022/04/18 03:03:27;;;;;;;0.80;0.80;;;3.90;55.90;;;2.74;44.27;95147.00;5061660;28;20206;-85
2022/04/18 03:05:55;;;;;;;0.70;0.70;;;3.90;57.10;;;2.76;44.70;95132.97;5057952;28;20215;-86
2022/04/18 03:08:22;;;;;;;0.80;0.80;;;3.80;57.70;;;2.86;44.78;95145.91;5040707;28;20203;-86
2022/04/18 03:11:06;;;;;;;0.80;0.80;;;3.90;57.40;;;2.87;44.97;95140.56;5056741;28;20242;-86
2022/04/18 03:13:45;;;;;;;0.80;0.80;;;3.90;57.90;;;2.96;45.97;95136.31;5061146;28;20195;-86
2022/04/18 03:16:36;;;;;;;0.80;0.80;;;3.90;58.60;;;2.92;46.07;95119.44;5063744;28;20204;-86
2022/04/18 03:19:04;;;;;;;0.70;0.70;;;4.00;58.80;;;3.05;45.64;95137.25;5061174;28;20252;-85
2022/04/18 03:21:35;;;;;;;0.80;0.80;;;4.10;58.60;;;3.08;46.00;95128.41;5060190;28;20293;-86
2022/04/18 03:24:07;;;;;;;0.70;0.70;;;4.00;58.80;;;3.13;46.36;95134.78;5078117;28;20226;-86
2022/04/18 03:26:41;;;;;;;0.70;0.70;;;4.10;59.40;;;3.11;46.90;95115.16;5060499;28;20659;-86
2022/04/18 03:29:13;;;;;;;0.70;0.70;;;4.10;59.50;;;3.20;46.67;95127.28;5061836;28;20321;-85
2022/04/18 03:31:42;;;;;;;0.60;0.60;;;4.10;59.70;;;3.23;47.59;95127.00;5061035;28;20229;-85
2022/04/18 03:34:11;;;;;;;0.80;0.80;;;4.20;60.10;;;3.32;47.16;95120.97;5061433;28;20218;-85
2022/04/18 03:42:11;;;;;;;0.80;0.80;;;4.30;60.70;;;3.42;48.69;95109.72;5061768;28;20728;-86
2022/04/18 03:44:44;;;;;;;0.70;0.70;;;4.30;60.80;;;3.46;47.42;95109.31;5067579;28;20210;-86
2022/04/18 03:47:12;;;;;;;0.80;0.80;;;4.30;60.60;;;3.48;47.82;95109.19;5059818;28;20203;-86
2022/04/18 03:49:41;;;;;;;0.60;0.60;;;4.40;60.60;;;3.53;47.76;95107.78;5043783;28;20264;-86
2022/04/18 03:52:09;;;;;;;0.60;0.60;;;4.40;60.50;;;3.51;48.10;95107.09;5052426;28;20214;-86
2022/04/18 03:54:40;;;;;;;0.70;0.70;;;4.50;60.70;;;3.53;48.40;95105.19;5061601;28;20229;-84
2022/04/18 03:57:09;;;;;;;0.60;0.60;;;4.50;60.90;;;3.53;48.07;95096.59;5052739;28;20195;-85
2022/04/18 03:59:46;;;;;;;0.80;0.80;;;4.50;60.70;;;3.63;47.39;95112.13;5050751;28;20225;-86
2022/04/18 04:02:14;;;;;;;0.60;0.60;;;4.50;60.70;;;3.63;48.13;95099.94;5058300;28;20203;-86
2022/04/18 04:04:46;;;;;;;0.60;0.60;;;4.50;60.90;;;3.67;47.79;95097.88;5044522;28;20221;-86
2022/04/18 04:07:14;;;;;;;0.63;0.63;;;4.50;60.90;;;3.73;48.08;95101.69;5068276;28;20652;-86
2022/04/18 04:09:43;;;;;;;0.70;0.70;;;4.60;61.10;;;3.71;48.17;95088.03;5059174;28;20293;-86
2022/04/18 04:12:13;;;;;;;0.80;0.80;;;4.60;61.10;;;3.66;48.49;95067.72;5056613;28;20207;-86
2022/04/18 04:14:55;;;;;;;0.60;0.60;;;4.60;61.10;;;3.85;48.86;95100.53;5060032;28;20583;-85
2022/04/18 04:17:30;;;;;;;0.57;0.57;;;4.70;61.40;;;3.89;48.48;95093.28;5065096;28;20660;-86
2022/04/18 04:20:19;;;;;;;0.70;0.70;;;4.70;62.30;;;3.92;48.64;95098.16;5060261;28;20218;-86
2022/04/18 04:22:49;;;;;;;0.70;0.70;;;4.70;61.50;;;3.94;48.60;95089.28;5059625;28;20199;-86
2022/04/18 04:25:35;;;;;;;0.70;0.70;;;4.80;61.50;;;3.89;48.54;95088.88;5036149;28;20424;-86
2022/04/18 04:28:04;;;;;;;0.75;0.75;;;4.80;61.40;;;3.93;48.64;95092.00;5042959;28;20560;-86
2022/04/18 04:30:31;;;;;;;0.70;0.70;;;4.80;61.50;;;3.90;48.89;95092.31;5057350;28;20226;-86
2022/04/18 04:33:03;;;;;;;0.70;0.70;;;4.80;61.70;;;3.91;49.04;95093.94;5041566;28;20609;-86
2022/04/18 04:35:30;;;;;;;0.70;0.70;;;4.80;61.70;;;3.90;48.87;95087.94;5074479;28;20241;-86
2022/04/18 04:38:07;;;;;;;0.70;0.70;;;4.80;62.40;;;3.88;48.99;95092.44;5043791;28;20201;-86
2022/04/18 04:40:48;;;;;;;0.60;0.60;;;4.80;61.70;;;3.77;48.62;95070.13;5043830;28;20243;-86
2022/04/18 04:43:28;;;;;;;0.60;0.60;;;4.80;61.50;;;3.72;48.87;95074.13;5042245;28;20202;-86
2022/04/18 04:46:02;;;;;;;0.70;0.70;;;4.80;61.50;;;3.83;48.93;95099.84;5045086;28;20222;-86
2022/04/18 04:48:42;;;;;;;0.70;0.70;;;4.80;61.60;;;3.83;49.27;95089.47;5058690;28;20313;-86
2022/04/18 04:51:15;;;;;;;0.80;0.80;;;4.80;61.90;;;3.86;48.93;95091.78;5059619;28;20686;-86
2022/04/18 04:53:42;;;;;;;0.70;0.70;;;4.80;61.70;;;3.86;49.24;95091.78;5059663;28;20202;-86
2022/04/18 04:56:12;;;;;;;0.80;0.80;;;4.80;61.70;;;3.92;48.95;95095.56;5059439;28;20230;-86
2022/04/18 04:58:40;;;;;;;0.70;0.70;;;4.80;61.80;;;3.95;48.94;95090.09;5061431;28;20191;-86
2022/04/18 05:01:08;;;;;;;0.90;0.90;;;4.80;61.80;;;4.00;48.77;95091.28;5046300;28;20199;-87
2022/04/18 05:03:43;;;;;;;0.77;0.77;;;4.80;62.40;;;4.06;48.82;95076.91;5060310;28;20210;-86
2022/04/18 05:06:11;;;;;;;0.60;0.60;;;4.80;62.10;;;4.01;48.65;95055.75;5055991;28;20237;-86
2022/04/18 05:08:43;;;;;;;0.70;0.70;;;4.90;62.10;;;4.23;48.68;95074.47;5060263;28;20214;-86
2022/04/18 05:11:11;;;;;;;0.60;0.60;;;4.90;62.00;;;4.33;49.13;95082.97;5055145;28;20636;-87
2022/04/18 05:13:47;;;;;;;0.60;0.60;;;5.00;62.20;;;4.39;48.82;95068.59;5056185;28;20266;-86
2022/04/18 05:16:16;;;;;;;0.60;0.60;;;5.10;62.10;;;4.34;48.34;95043.06;5043220;28;20211;-86
2022/04/18 05:19:06;;;;;;;0.80;0.80;;;5.10;62.00;;;4.51;48.50;95057.00;5062720;28;20222;-86
2022/04/18 05:21:35;;;;;;;0.60;0.60;;;5.20;62.00;;;4.62;48.43;95051.56;5053343;28;20194;-86
2022/04/18 05:24:11;;;;;;;0.70;0.70;;;5.30;62.00;;;4.69;48.06;95058.75;5050487;28;20218;-87
2022/04/18 05:26:39;;;;;;;0.60;0.60;;;5.40;61.80;;;4.73;48.08;95066.09;5075042;28;20198;-86
2022/04/18 05:29:07;;;;;;;0.70;0.70;;;5.40;61.80;;;4.78;47.33;95053.47;5042808;28;20691;-86
2022/04/18 05:31:34;;;;;;;0.70;0.70;;;5.50;61.70;;;4.84;47.49;95064.22;5058311;28;20222;-86
2022/04/18 05:34:01;;;;;;;0.80;0.80;;;5.50;61.60;;;4.89;47.29;95069.78;5058573;28;20217;-87
2022/04/18 05:36:32;;;;;;;0.70;0.70;;;5.60;61.60;;;4.93;47.72;95069.31;5037466;28;20570;-86
2022/04/18 05:39:02;;;;;;;0.80;0.80;;;5.60;61.60;;;4.97;47.61;95069.84;5057559;28;20242;-87
2022/04/18 05:41:37;;;;;;;0.80;0.80;;;5.60;61.50;;;5.03;47.63;95061.44;5069369;28;20225;-86
2022/04/18 05:44:05;;;;;;;0.70;0.70;;;5.70;61.60;;;5.00;47.45;95048.72;5041289;28;20706;-86
2022/04/18 05:46:41;;;;;;;0.60;0.60;;;5.80;61.70;;;5.15;47.21;95063.75;5059482;28;20248;-86
2022/04/18 05:49:08;;;;;;;0.70;0.70;;;5.80;61.50;;;5.27;47.19;95068.56;5058663;28;20299;-87
2022/04/18 05:51:37;;;;;;;0.70;0.70;;;5.90;61.50;;;5.29;47.11;95063.19;5057094;28;20236;-87
2022/04/18 05:54:06;;;;;;;0.60;0.60;;;5.90;61.50;;;5.39;47.24;95073.47;5052680;28;20218;-87
2022/04/18 05:56:42;;;;;;;0.80;0.80;;;6.00;61.50;;;5.43;47.02;95065.22;5040615;28;20211;-86
2022/04/18 05:59:17;;;;;;;0.70;0.70;;;6.10;61.40;;;5.52;46.94;95075.66;5043255;28;20727;-86
2022/04/18 06:02:07;;;;;;;0.70;0.70;;;6.10;61.30;;;5.58;46.69;95075.03;5077470;28;20202;-86
2022/04/18 06:04:36;;;;;;;0.80;0.80;;;6.20;61.20;;;5.61;46.69;95066.88;5056983;28;20218;-87
2022/04/18 06:07:30;;;;;;;0.68;0.68;;;6.30;61.30;;;5.64;46.24;95063.16;5059865;28;20555;-86
2022/04/18 06:10:17;;;;;;;0.60;0.60;;;6.30;61.10;;;5.70;46.61;95068.56;5060409;28;20234;-86
2022/04/18 06:12:45;;;;;;;0.70;0.70;;;6.30;61.00;;;5.59;46.40;95037.59;5057036;28;20221;-87
2022/04/18 06:15:13;;;;;;;0.73;0.73;;;6.40;61.00;;;5.77;46.22;95063.53;5074208;28;20745;-87
2022/04/18 06:17:40;;;;;;;0.63;0.63;;;6.40;60.90;;;5.73;46.15;95044.00;5040071;28;20207;-87
2022/04/18 06:20:08;;;;;;;0.70;0.70;;;6.50;61.00;;;5.85;45.89;95058.34;5074812;28;20219;-83
2022/04/18 06:22:36;;;;;;;0.80;0.80;;;6.50;60.80;;;5.92;46.21;95061.94;5041541;28;20252;-84
2022/04/18 06:25:03;;;;;;;0.60;0.60;;;6.50;60.70;;;5.96;46.11;95057.25;5057827;28;20226;-85
2022/04/18 06:27:34;;;;;;;0.80;0.80;;;6.60;60.80;;;5.96;46.23;95054.63;5056800;28;20203;-84
2022/04/18 06:30:01;;;;;;;0.65;0.65;;;6.60;60.80;;;5.99;46.00;95056.13;5057643;28;20305;-84
2022/04/18 06:32:44;;;;;;;0.57;0.57;;;6.60;60.70;;;5.91;46.33;95036.09;5060406;28;20208;-85
2022/04/18 06:35:12;;;;;;;0.60;0.60;;;6.70;60.90;;;6.02;46.09;95061.03;5057462;28;20280;-84
2022/04/18 06:37:40;;;;;;;0.80;0.80;;;6.70;60.90;;;6.01;46.05;95049.78;5054936;28;20237;-86
2022/04/18 06:40:33;;;;;;;0.50;0.50;;;6.70;60.80;;;6.03;46.47;95047.84;5068274;28;20219;-84
2022/04/18 06:43:00;;;;;;;0.63;0.63;;;6.70;60.90;;;5.99;45.84;95046.53;5054853;28;20195;-84
2022/04/18 06:45:31;;;;;;;0.50;0.50;;;6.80;60.90;;;6.02;46.22;95045.41;5039657;28;20245;-82
2022/04/18 06:48:00;;;;;;;0.60;0.60;;;6.80;60.90;;;6.10;46.04;95042.81;5055107;28;20213;-83
2022/04/18 06:50:53;;;;;;;0.60;0.60;;;6.80;61.00;;;6.15;45.95;95050.97;5051206;28;20215;-83
2022/04/18 06:53:39;;;;;;;0.80;0.80;;;6.80;61.00;;;6.21;45.90;95057.31;5073033;28;20260;-82
2022/04/18 06:59:30;;;;;;;0.60;0.60;;;6.90;60.90;;;6.34;45.58;95075.88;5063157;28;20222;-82
2022/04/18 07:01:59;;;;;;;0.60;0.60;;;6.90;60.80;;;6.44;45.47;95073.13;5060690;28;20579;-83
2022/04/18 07:04:26;;;;;;;0.60;0.60;;;7.00;60.80;;;6.52;45.47;95078.34;5060213;28;20222;-83
2022/04/18 07:06:54;;;;;;;0.65;0.65;;;7.00;60.70;;;6.62;45.03;95070.38;5057707;28;20197;-84
2022/04/18 07:09:22;;;;;;;0.60;0.60;;;7.10;60.60;;;6.71;44.98;95066.78;5024375;28;20227;-84
2022/04/18 07:11:52;;;;;;;0.60;0.60;;;7.20;60.60;;;6.79;44.48;95058.13;5023883;28;20561;-84
2022/04/18 07:14:23;;;;;;;0.70;0.70;;;7.30;60.50;;;6.91;44.83;95056.00;5041622;28;20222;-85
2022/04/18 07:16:53;;;;;;;0.60;0.60;;;7.30;60.40;;;6.82;44.46;95023.94;5041324;28;20195;-84
2022/04/18 07:19:25;;;;;;;0.50;0.50;;;7.40;60.30;;;7.03;44.62;95038.22;5041602;28;20222;-84
2022/04/18 07:21:53;;;;;;;0.70;0.70;;;7.50;60.30;;;6.96;45.26;95034.66;5025075;28;20196;-83
2022/04/18 07:24:22;;;;;;;0.60;0.60;;;7.50;60.20;;;6.99;44.56;95029.91;5041377;28;20300;-85
2022/04/18 07:26:53;;;;;;;0.60;0.60;;;7.60;60.40;;;7.09;44.85;95047.97;5060665;28;20297;-84
2022/04/18 07:29:21;;;;;;;0.60;0.60;;;7.70;60.30;;;7.09;45.12;95037.53;5077549;28;20297;-85
2022/04/18 07:31:48;;;;;;;0.60;0.60;;;7.70;60.30;;;7.12;44.79;95045.03;5060601;28;20218;-83
2022/04/18 07:34:16;;;;;;;0.60;0.60;;;7.70;60.30;;;7.08;44.83;95037.72;5044464;28;20338;-84
2022/04/18 07:36:43;;;;;;;0.60;0.60;;;7.70;60.20;;;7.01;44.55;95014.09;5076417;28;20220;-84
2022/04/18 07:39:10;;;;;;;0.60;0.60;;;7.70;60.20;;;7.17;44.75;95039.31;5060007;28;20268;-84
2022/04/18 07:41:44;;;;;;;0.60;0.60;;;7.70;60.10;;;7.17;44.51;95034.91;5077277;28;20214;-85
2022/04/18 07:44:12;;;;;;;0.60;0.60;;;7.80;60.20;;;7.26;44.67;95040.13;5060957;28;20227;-84
2022/04/18 07:46:40;;;;;;;0.60;0.60;;;7.80;60.20;;;7.28;44.02;95032.94;5059808;28;20194;-84
2022/04/18 07:49:13;;;;;;;0.60;0.60;;;7.80;60.10;;;7.33;44.50;95038.47;5061647;28;20246;-84
2022/04/18 07:51:45;;;;;;;0.60;0.60;;;7.90;60.10;;;7.39;44.15;95036.97;5045387;28;20309;-84
2022/04/18 07:54:23;;;;;;;0.60;0.60;;;7.90;60.10;;;7.43;44.29;95035.66;5062131;28;20707;-84
2022/04/18 07:56:51;;;;;;;0.60;0.60;;;8.00;60.10;;;7.44;44.10;95029.47;5040520;28;20277;-85
2022/04/18 07:59:24;;;;;;;0.70;0.70;;;8.00;60.10;;;7.56;44.43;95038.53;5060652;28;20222;-84
2022/04/18 08:01:51;;;;;;;0.70;0.70;;;8.00;60.10;;;7.60;43.80;95039.81;5060768;28;20203;-85
2022/04/18 08:04:39;;;;;;;0.70;0.70;;;8.10;60.10;;;7.64;43.76;95035.06;5079801;28;20253;-85
2022/04/18 08:07:09;;;;;;;0.50;0.50;;;8.10;60.00;;;7.60;44.10;95021.53;5045593;28;20230;-84
2022/04/18 08:09:37;;;;;;;0.80;0.80;;;8.20;60.00;;;7.73;43.89;95023.63;5060420;28;20301;-85
2022/04/18 08:12:06;;;;;;;0.60;0.60;;;8.20;60.00;;;7.65;44.19;95011.44;5059934;28;20226;-84
2022/04/18 08:14:52;;;;;;;0.80;0.80;;;8.30;60.00;;;7.79;43.99;95028.16;5079846;28;20215;-84
2022/04/18 08:17:19;;;;;;;0.60;0.60;;;8.30;60.00;;;7.79;44.00;95019.50;5076167;28;20194;-84
2022/04/18 08:19:54;;;;;;;0.70;0.70;;;8.30;59.90;;;7.75;43.97;95013.81;5045155;28;20716;-84
2022/04/18 08:22:22;;;;;;;0.60;0.60;;;8.40;59.90;;;7.74;44.17;95016.56;5060176;28;20202;-84
2022/04/18 08:25:12;;;;;;;0.70;0.70;;;8.40;59.80;;;7.75;43.86;95026.03;5065819;28;20328;-84
2022/04/18 08:27:59;;;;;;;0.70;0.70;;;8.40;59.80;;;7.79;43.74;95029.97;5072020;28;20608;-84
2022/04/18 08:30:33;;;;;;;0.70;0.70;;;8.40;59.80;;;7.75;44.09;95018.22;5063135;28;20222;-84
2022/04/18 08:33:08;;;;;;;0.50;0.50;;;8.40;59.80;;;7.82;43.88;95024.38;5060477;28;20310;-84
2022/04/18 08:35:35;;;;;;;0.50;0.50;;;8.40;59.90;;;7.78;43.65;94999.59;5042742;28;20215;-84
2022/04/18 08:38:03;;;;;;;0.70;0.70;;;8.40;60.00;;;7.98;43.92;95019.06;5076160;28;20186;-84
2022/04/18 08:40:30;;;;;;;0.50;0.50;;;8.40;60.00;;;8.07;43.98;95017.22;5076034;28;20223;-85
2022/04/18 08:42:59;;;;;;;0.60;0.60;;;8.50;60.00;;;8.24;43.82;95025.75;5075246;28;20597;-84
2022/04/18 08:45:30;;;;;;;0.60;0.60;;;8.50;60.10;;;8.40;43.77;95019.59;5076067;28;20222;-84
2022/04/18 08:53:31;;;;;;;0.57;0.57;;;8.90;60.10;;;8.77;43.29;95009.34;5061422;28;20195;-84
2022/04/18 08:56:02;;;;;;;0.50;0.50;;;9.00;60.00;;;8.86;42.99;95012.69;5059392;28;20249;-85
2022/04/18 08:58:31;;;;;;;0.60;0.60;;;9.10;59.90;;;8.92;42.81;94998.88;5059401;28;20198;-85
2022/04/18 09:01:01;;;;;;;0.70;0.70;;;9.10;59.80;;;9.04;42.85;95007.13;5060377;28;20233;-85
2022/04/18 09:03:52;;;;;;;0.70;0.70;;;9.30;59.90;;;9.09;43.00;95008.22;5079987;28;20352;-85
2022/04/18 09:06:29;;;;;;;0.50;0.50;;;9.30;59.60;;;9.07;42.44;95002.34;5076855;28;20191;-85
2022/04/18 09:09:14;;;;;;;0.50;0.50;;;9.40;59.40;;;9.06;42.45;95011.19;5046474;28;20260;-84
2022/04/18 09:11:46;;;;;;;0.68;0.68;;;9.40;59.00;;;9.02;42.45;94996.84;5059424;28;20268;-85
2022/04/18 09:14:19;;;;;;;0.70;0.70;;;9.50;59.20;;;8.99;42.45;95005.03;5074569;28;20691;-85
2022/04/18 09:16:50;;;;;;;0.55;0.55;;;9.50;59.00;;;9.00;42.57;94995.41;5043217;28;20243;-85
2022/04/18 09:19:37;;;;;;;0.50;0.50;;;9.50;59.10;;;9.01;42.82;94989.97;5063865;28;20219;-85
2022/04/18 09:22:08;;;;;;;0.60;0.60;;;9.50;59.20;;;9.02;42.71;94988.16;5059020;28;20210;-84
2022/04/18 09:24:46;;;;;;;0.60;0.60;;;9.50;59.20;;;9.06;42.98;94994.69;5074829;28;20271;-84
2022/04/18 09:27:29;;;;;;;0.60;0.60;;;9.50;59.20;;;9.05;43.10;94985.19;5075306;28;20213;-85
2022/04/18 09:30:16;;;;;;;0.50;0.50;;;9.50;59.30;;;9.17;42.84;94983.75;5076380;28;20234;-85
2022/04/18 09:33:04;;;;;;;0.50;0.50;;;9.60;59.60;;;9.31;42.89;94981.31;5060052;28;20231;-84
2022/04/18 09:35:39;;;;;;;0.70;0.70;;;9.60;59.60;;;9.41;42.72;94976.59;5059209;28;20222;-84
2022/04/18 09:38:11;;;;;;;0.60;0.60;;;9.60;59.50;;;9.51;42.71;94989.41;5058742;28;20282;-85
2022/04/18 09:41:11;;;;;;;0.70;0.70;;;9.70;59.60;;;9.56;42.62;94971.34;5071058;28;20205;-83
2022/04/18 09:43:46;;;;;;;0.50;0.50;;;9.80;59.50;;;9.63;42.41;94961.75;5058157;28;20279;-82
2022/04/18 09:46:18;;;;;;;0.50;0.50;;;9.80;59.50;;;9.76;42.73;94968.94;5042475;28;20213;-82
2022/04/18 09:48:52;;;;;;;0.60;0.60;;;9.90;59.60;;;9.84;42.60;94979.31;5043149;28;20213;-83
2022/04/18 09:51:27;;;;;;;0.50;0.50;;;10.00;57.70;;;9.98;42.19;94971.59;5041338;28;20652;-83
2022/04/18 09:54:04;;;;;;;0.60;0.60;;;10.00;57.70;;;10.09;42.16;94964.06;5043452;28;20218;-82
2022/04/18 09:56:31;;;;;;;0.50;0.50;;;10.20;57.90;;;10.14;42.25;94963.47;5074603;28;20294;-83
2022/04/18 09:58:58;;;;;;;0.50;0.50;;;10.20;57.80;;;10.20;42.16;94959.28;5057651;28;20668;-83
2022/04/18 10:01:35;;;;;;;0.60;0.60;;;10.30;57.70;;;10.39;42.04;94935.09;5092265;28;20586;-83
2022/04/18 10:04:05;;;;;;;0.60;0.60;;;10.40;57.80;;;10.62;42.05;94957.66;5057950;28;20305;-82
2022/04/18 10:06:33;;;;;;;0.70;0.70;;;10.60;58.00;;;10.79;41.63;94944.22;5041597;28;20190;-82
2022/04/18 10:09:00;;;;;;;0.60;0.60;;;10.70;57.80;;;10.92;41.52;94943.50;5057485;28;20683;-82
2022/04/18 10:11:28;;;;;;;0.50;0.50;;;10.80;57.80;;;11.13;41.89;94937.34;5057828;28;20198;-83
2022/04/18 10:13:55;;;;;;;0.70;0.70;;;10.90;58.00;;;11.34;41.71;94926.75;5057659;28;20294;-85
2022/04/18 10:16:23;;;;;;;0.60;0.60;;;11.10;58.00;;;11.52;41.01;94936.72;5037612;28;20198;-85
2022/04/18 10:18:58;;;;;;;0.60;0.60;;;11.20;57.40;;;11.66;41.21;94927.06;5057547;28;20202;-85
2022/04/18 10:21:31;;;;;;;0.60;0.60;;;11.40;57.60;;;11.76;40.87;94918.78;5042597;28;20216;-85
2022/04/18 10:24:09;;;;;;;0.60;0.60;;;11.60;57.50;;;11.98;40.72;94932.63;5057440;28;20251;-85
2022/04/18 10:27:30;;;;;;;0.50;0.50;;;11.80;57.20;;;12.14;40.93;94934.03;5045805;28;20301;-85
2022/04/18 10:30:00;;;;;;;0.50;0.50;;;11.90;56.80;;;12.22;40.63;94922.53;5008672;28;20214;-83
2022/04/18 10:32:28;;;;;;;0.60;0.60;;;12.10;56.70;;;12.31;40.63;94913.41;5042869;28;20275;-84
2022/04/18 10:35:04;;;;;;;0.60;0.60;;;12.20;56.40;;;12.49;39.93;94922.53;5072672;28;20298;-84
2022/04/18 10:37:33;;;;;;;0.60;0.60;;;12.30;56.60;;;12.58;40.38;94923.13;5060358;28;20289;-85
2022/04/18 10:40:06;;;;;;;0.60;0.60;;;12.40;56.60;;;12.65;40.32;94918.69;5056941;28;20210;-85
2022/04/18 10:42:36;;;;;;;0.50;0.50;;;12.50;56.80;;;12.78;40.18;94926.56;5045586;28;20190;-85
2022/04/18 10:45:16;;;;;;;0.50;0.50;;;12.60;56.80;;;12.86;40.15;94925.53;5061300;28;20205;-84
2022/04/18 10:47:55;;;;;;;0.60;0.60;;;12.70;57.00;;;12.94;39.99;94921.88;5075800;28;20238;-85
2022/04/18 10:50:32;;;;;;;0.60;0.60;;;12.80;56.20;;;13.03;40.04;94923.25;5054014;28;20229;-85
2022/04/18 10:53:18;;;;;;;0.60;0.60;;;12.90;57.10;;;13.09;40.07;94914.53;5027130;28;20225;-83
2022/04/18 10:55:51;;;;;;;0.60;0.60;;;13.00;56.70;;;13.22;40.01;94910.22;5061421;28;20244;-84
2022/04/18 10:58:27;;;;;;;0.60;0.60;;;13.10;56.80;;;13.38;39.94;94914.28;5075441;28;20218;-83
2022/04/18 11:00:58;;;;;;;0.60;0.60;;;13.20;57.10;;;13.48;39.93;94893.53;5077763;28;20256;-84
2022/04/18 11:03:51;;;;;;;0.60;0.60;;;13.30;58.60;;;13.76;39.67;94903.72;5075925;28;20195;-84
2022/04/18 11:06:18;;;;;;;0.70;0.70;;;13.50;56.00;;;13.93;39.62;94897.97;5055407;28;20195;-83
2022/04/18 11:09:08;;;;;;;0.57;0.57;;;13.60;56.80;;;14.09;39.82;94891.38;5057805;28;20205;-83